Time;durP1;ratioP1;P1;durP2;ratioP2;P2;SDS_P1;SDS_P2;PMS_P1;PMS_P2;Temp;Humidity;BMP_temperature;BMP_pressure;BME280_temperature;BME280_humidity;BME280_pressure;Samples;Min_cycle;Max_cycle;Signal;HPM_P1;HPM_P2
2022/06/18 00:02:06;;;;;;;;;;;22.70;66.00;;;;;;5055663;28;20000;-67
2022/06/18 00:04:33;;;;;;;;;;;22.70;66.80;;;;;;5056117;28;20017;-68
2022/06/18 00:07:00;;;;;;;;;;;22.70;67.50;;;;;;5062354;28;19975;-68
2022/06/18 00:09:28;;;;;;;;;;;22.70;68.50;;;;;;5063560;28;19967;-67
2022/06/18 00:14:43;;;;;;;;;;;22.60;70.70;;;;;;5065512;28;19951;-67
2022/06/18 00:17:12;;;;;;;;;;;22.50;71.80;;;;;;5058313;28;19925;-68
2022/06/18 00:19:38;;;;;;;;;;;22.50;72.80;;;;;;5063466;28;20356;-68
2022/06/18 00:22:05;;;;;;;;;;;22.40;73.60;;;;;;5058691;28;19972;-67
2022/06/18 00:24:32;;;;;;;;;;;22.40;74.30;;;;;;5062263;28;20024;-68
2022/06/18 00:26:59;;;;;;;;;;;22.40;75.00;;;;;;5064350;28;19924;-68
2022/06/18 00:29:25;;;;;;;;;;;22.30;75.30;;;;;;5065846;28;19971;-67
2022/06/18 00:31:53;;;;;;;;;;;22.30;75.60;;;;;;5060626;28;19935;-68
2022/06/18 00:34:20;;;;;;;;;;;22.30;76.40;;;;;;5057042;28;19924;-67
2022/06/18 00:36:47;;;;;;;;;;;22.30;75.10;;;;;;5069333;28;20392;-67
2022/06/18 00:39:15;;;;;;;;;;;22.40;75.00;;;;;;5064176;28;19929;-68
2022/06/18 00:41:43;;;;;;;;;;;22.40;74.40;;;;;;5057295;28;19969;-67
2022/06/18 00:44:18;;;;;;;;;;;22.40;74.00;;;;;;5052794;28;19938;-68
2022/06/18 00:46:48;;;;;;;;;;;22.40;73.70;;;;;;5059237;28;20395;-67
2022/06/18 00:49:21;;;;;;;;;;;22.40;73.10;;;;;;5060235;28;19924;-67
2022/06/18 00:51:50;;;;;;;;;;;22.40;72.50;;;;;;5059959;28;19960;-67
2022/06/18 00:54:20;;;;;;;;;;;22.50;71.90;;;;;;5055782;28;20024;-67
2022/06/18 00:56:48;;;;;;;;;;;22.40;71.10;;;;;;5058951;28;20358;-67
2022/06/18 00:59:17;;;;;;;;;;;22.40;70.70;;;;;;5063059;28;19998;-67
2022/06/18 01:01:48;;;;;;;;;;;22.40;70.70;;;;;;5061543;28;19964;-68
2022/06/18 01:04:23;;;;;;;;;;;22.40;70.60;;;;;;5058929;28;20290;-67
2022/06/18 01:06:50;;;;;;;;;;;22.50;70.60;;;;;;5061701;28;20023;-68
2022/06/18 01:09:18;;;;;;;;;;;22.40;70.30;;;;;;5065753;28;19983;-67
2022/06/18 01:11:46;;;;;;;;;;;22.40;70.50;;;;;;5053236;28;19956;-68
2022/06/18 01:14:15;;;;;;;;;;;22.40;70.80;;;;;;5059846;28;19931;-67
2022/06/18 01:16:41;;;;;;;;;;;22.30;71.30;;;;;;5066101;28;20415;-68
2022/06/18 01:19:10;;;;;;;;;;;22.30;72.20;;;;;;5064475;28;19925;-67
2022/06/18 01:21:43;;;;;;;;;;;22.30;73.30;;;;;;5051254;28;20399;-67
2022/06/18 01:24:13;;;;;;;;;;;22.30;74.50;;;;;;5059721;28;19924;-67
2022/06/18 01:26:40;;;;;;;;;;;22.30;75.70;;;;;;5066395;28;19968;-67
2022/06/18 01:29:07;;;;;;;;;;;22.20;76.70;;;;;;5061914;28;20344;-68
2022/06/18 01:31:34;;;;;;;;;;;22.10;77.70;;;;;;5051797;28;20015;-67
2022/06/18 01:34:01;;;;;;;;;;;22.10;78.70;;;;;;5054199;28;19968;-67
2022/06/18 01:36:30;;;;;;;;;;;22.10;79.60;;;;;;5058499;28;19987;-68
2022/06/18 01:38:56;;;;;;;;;;;22.00;80.40;;;;;;5067350;28;20010;-67
2022/06/18 01:44:12;;;;;;;;;;;22.00;81.80;;;;;;5059064;28;19937;-69
2022/06/18 01:46:39;;;;;;;;;;;21.90;82.40;;;;;;5058591;28;20011;-68
2022/06/18 01:49:07;;;;;;;;;;;21.90;83.30;;;;;;5068105;28;19967;-67
2022/06/18 01:51:35;;;;;;;;;;;21.80;83.80;;;;;;5061718;28;19959;-68
2022/06/18 01:54:03;;;;;;;;;;;21.80;84.40;;;;;;5050720;28;20005;-68
2022/06/18 01:56:35;;;;;;;;;;;21.80;85.10;;;;;;5066977;28;19925;-68
2022/06/18 01:59:04;;;;;;;;;;;21.70;85.80;;;;;;5062012;28;19955;-68
2022/06/18 02:01:33;;;;;;;;;;;21.60;86.40;;;;;;5056190;28;19925;-67
2022/06/18 02:04:01;;;;;;;;;;;21.60;87.10;;;;;;5061869;28;20019;-67
2022/06/18 02:06:29;;;;;;;;;;;21.60;87.70;;;;;;5068587;28;19968;-67
2022/06/18 02:08:55;;;;;;;;;;;21.50;88.00;;;;;;5068521;28;19932;-67
2022/06/18 02:11:22;;;;;;;;;;;21.50;88.50;;;;;;5063828;28;20363;-68
2022/06/18 02:13:53;;;;;;;;;;;21.50;88.50;;;;;;5060732;28;20398;-67
2022/06/18 02:16:21;;;;;;;;;;;21.40;88.30;;;;;;5069351;28;19924;-68
2022/06/18 02:18:49;;;;;;;;;;;21.40;88.30;;;;;;5061249;28;19931;-67
2022/06/18 02:21:17;;;;;;;;;;;21.40;88.30;;;;;;5063761;28;19979;-68
2022/06/18 02:23:44;;;;;;;;;;;21.40;88.10;;;;;;5066252;28;19924;-67
2022/06/18 02:26:11;;;;;;;;;;;21.40;87.80;;;;;;5073498;28;19976;-67
2022/06/18 02:28:40;;;;;;;;;;;21.40;87.50;;;;;;5061785;28;19968;-67
2022/06/18 02:31:12;;;;;;;;;;;21.30;87.60;;;;;;5066528;28;20011;-67
2022/06/18 02:33:40;;;;;;;;;;;21.30;87.60;;;;;;5065861;28;19924;-67
2022/06/18 02:36:11;;;;;;;;;;;21.20;87.80;;;;;;5070018;28;20271;-67
2022/06/18 02:38:38;;;;;;;;;;;21.30;88.40;;;;;;5062490;28;20032;-68
2022/06/18 02:41:04;;;;;;;;;;;21.20;88.40;;;;;;5054786;28;19956;-67
2022/06/18 02:43:31;;;;;;;;;;;21.20;88.60;;;;;;5062951;28;19979;-68
2022/06/18 02:45:59;;;;;;;;;;;21.10;88.30;;;;;;5064543;28;20384;-68
2022/06/18 02:48:29;;;;;;;;;;;21.10;88.60;;;;;;5057194;28;20057;-67
2022/06/18 02:50:57;;;;;;;;;;;21.10;89.00;;;;;;5065277;28;19924;-67
2022/06/18 02:53:24;;;;;;;;;;;21.00;89.20;;;;;;5068782;28;20358;-66
2022/06/18 02:55:53;;;;;;;;;;;21.00;89.90;;;;;;5071400;28;20022;-67
2022/06/18 02:58:22;;;;;;;;;;;20.90;90.40;;;;;;5063480;28;20298;-67
2022/06/18 03:00:52;;;;;;;;;;;20.90;90.30;;;;;;5073595;28;19994;-67
2022/06/18 03:03:20;;;;;;;;;;;20.90;90.40;;;;;;5060371;28;19931;-67
2022/06/18 03:05:48;;;;;;;;;;;20.90;90.60;;;;;;5054017;28;19931;-67
2022/06/18 03:08:15;;;;;;;;;;;20.80;91.10;;;;;;5053863;28;20399;-67
2022/06/18 03:13:26;;;;;;;;;;;20.80;91.00;;;;;;5064960;28;19935;-67
2022/06/18 03:15:54;;;;;;;;;;;20.80;91.20;;;;;;5061045;28;19928;-67
2022/06/18 03:18:22;;;;;;;;;;;20.80;91.30;;;;;;5060494;28;20016;-67
2022/06/18 03:20:55;;;;;;;;;;;20.70;91.50;;;;;;5071503;28;20027;-67
2022/06/18 03:23:23;;;;;;;;;;;20.70;91.70;;;;;;5068606;28;20367;-67
2022/06/18 03:25:50;;;;;;;;;;;20.70;92.00;;;;;;5060457;28;20392;-67
2022/06/18 03:28:18;;;;;;;;;;;20.70;92.10;;;;;;5064927;28;20404;-67
2022/06/18 03:30:44;;;;;;;;;;;20.70;92.40;;;;;;5053705;28;19924;-67
2022/06/18 03:33:12;;;;;;;;;;;20.60;92.70;;;;;;5055142;28;19931;-68
2022/06/18 03:35:39;;;;;;;;;;;20.60;93.30;;;;;;5059323;28;20375;-67
2022/06/18 03:38:08;;;;;;;;;;;20.60;93.10;;;;;;5063433;28;19931;-67
2022/06/18 03:40:34;;;;;;;;;;;20.60;93.30;;;;;;5070262;28;19964;-67
2022/06/18 03:43:01;;;;;;;;;;;20.50;93.50;;;;;;5056091;28;20463;-67
2022/06/18 03:45:29;;;;;;;;;;;20.50;93.80;;;;;;5066112;28;19956;-67
2022/06/18 03:47:55;;;;;;;;;;;20.50;94.20;;;;;;5066367;28;19956;-67
2022/06/18 03:50:22;;;;;;;;;;;20.40;94.30;;;;;;5067944;28;20003;-67
2022/06/18 03:52:49;;;;;;;;;;;20.40;94.60;;;;;;5055238;28;20019;-67
2022/06/18 03:55:17;;;;;;;;;;;20.40;94.80;;;;;;5060531;28;20029;-67
2022/06/18 03:57:44;;;;;;;;;;;20.40;94.80;;;;;;5063599;28;20084;-67
2022/06/18 04:00:15;;;;;;;;;;;20.40;95.00;;;;;;5058863;28;20007;-67
2022/06/18 04:02:42;;;;;;;;;;;20.40;95.20;;;;;;5068658;28;19986;-67
2022/06/18 04:05:10;;;;;;;;;;;20.40;95.30;;;;;;5068853;28;20470;-67
2022/06/18 04:07:37;;;;;;;;;;;20.40;95.40;;;;;;5065905;28;20023;-67
2022/06/18 04:10:06;;;;;;;;;;;20.40;95.50;;;;;;5054491;28;19931;-67
2022/06/18 04:12:34;;;;;;;;;;;20.50;95.50;;;;;;5059559;28;19931;-67
2022/06/18 04:15:01;;;;;;;;;;;20.50;95.50;;;;;;5068428;28;19925;-67
2022/06/18 04:17:27;;;;;;;;;;;20.50;95.40;;;;;;5066864;28;20015;-67
2022/06/18 04:19:54;;;;;;;;;;;20.60;95.50;;;;;;5057273;28;20019;-67
2022/06/18 04:22:22;;;;;;;;;;;20.60;95.50;;;;;;5052733;28;19967;-67
2022/06/18 04:24:48;;;;;;;;;;;20.60;95.50;;;;;;5053940;28;19925;-66
2022/06/18 04:27:15;;;;;;;;;;;20.60;95.50;;;;;;5060416;28;19929;-67
2022/06/18 04:29:43;;;;;;;;;;;20.70;95.50;;;;;;5067035;28;19968;-67
2022/06/18 04:32:10;;;;;;;;;;;20.80;95.40;;;;;;5058413;28;20019;-66
2022/06/18 04:34:37;;;;;;;;;;;20.80;95.30;;;;;;5056894;28;20342;-66
2022/06/18 04:37:04;;;;;;;;;;;20.90;95.30;;;;;;5061940;28;19925;-66
2022/06/18 04:39:31;;;;;;;;;;;20.90;95.20;;;;;;5068253;28;19933;-67
2022/06/18 04:41:58;;;;;;;;;;;21.00;95.20;;;;;;5070747;28;20391;-67
2022/06/18 04:44:25;;;;;;;;;;;21.00;95.10;;;;;;5064850;28;19928;-66
2022/06/18 04:46:53;;;;;;;;;;;21.10;95.00;;;;;;5065613;28;19932;-67
2022/06/18 04:49:20;;;;;;;;;;;21.20;95.00;;;;;;5067798;28;20015;-66
2022/06/18 04:51:47;;;;;;;;;;;21.20;94.80;;;;;;5055729;28;19925;-66
2022/06/18 04:54:14;;;;;;;;;;;21.30;94.60;;;;;;5060414;28;19925;-67
2022/06/18 04:56:40;;;;;;;;;;;21.40;94.50;;;;;;5065384;28;19925;-67
2022/06/18 04:59:07;;;;;;;;;;;21.50;94.40;;;;;;5056430;28;19925;-67
2022/06/18 05:01:34;;;;;;;;;;;21.50;94.20;;;;;;5057908;28;19925;-67
2022/06/18 05:04:02;;;;;;;;;;;21.60;94.20;;;;;;5065329;28;19932;-67
2022/06/18 05:06:28;;;;;;;;;;;21.70;94.00;;;;;;5068386;28;19931;-67
2022/06/18 05:08:55;;;;;;;;;;;21.80;94.00;;;;;;5064015;28;20370;-66
2022/06/18 05:11:22;;;;;;;;;;;21.90;93.80;;;;;;5057085;28;20019;-67
2022/06/18 05:13:48;;;;;;;;;;;21.90;93.50;;;;;;5058073;28;20500;-67
2022/06/18 05:16:15;;;;;;;;;;;22.00;93.40;;;;;;5060637;28;19935;-67
2022/06/18 05:18:44;;;;;;;;;;;22.20;93.40;;;;;;5060034;28;19951;-67
2022/06/18 05:21:12;;;;;;;;;;;22.30;93.30;;;;;;5068972;28;20360;-67
2022/06/18 05:23:39;;;;;;;;;;;22.40;93.10;;;;;;5065657;28;20403;-67
2022/06/18 05:26:07;;;;;;;;;;;22.60;92.60;;;;;;5068295;28;20379;-67
2022/06/18 05:28:33;;;;;;;;;;;22.70;92.20;;;;;;5053771;28;19925;-67
2022/06/18 05:31:00;;;;;;;;;;;22.80;91.80;;;;;;5054918;28;20414;-66
2022/06/18 05:33:27;;;;;;;;;;;22.80;91.50;;;;;;5067088;28;20371;-66
2022/06/18 05:35:53;;;;;;;;;;;22.90;91.30;;;;;;5062479;28;20003;-66
2022/06/18 05:38:23;;;;;;;;;;;22.90;91.30;;;;;;5053767;28;19932;-66
2022/06/18 05:40:49;;;;;;;;;;;23.00;91.00;;;;;;5066680;28;19978;-66
2022/06/18 05:43:16;;;;;;;;;;;23.20;90.60;;;;;;5064443;28;19991;-67
2022/06/18 05:45:43;;;;;;;;;;;23.30;90.40;;;;;;5064529;28;20399;-67
2022/06/18 05:48:10;;;;;;;;;;;23.40;90.10;;;;;;5064420;28;19976;-67
2022/06/18 05:50:37;;;;;;;;;;;23.40;89.90;;;;;;5067435;28;19968;-67
2022/06/18 05:53:04;;;;;;;;;;;23.60;89.60;;;;;;5054620;28;20481;-67
2022/06/18 05:55:32;;;;;;;;;;;23.70;89.30;;;;;;5057162;28;19924;-67
2022/06/18 05:57:59;;;;;;;;;;;23.90;88.60;;;;;;5063058;28;19925;-67
2022/06/18 06:00:27;;;;;;;;;;;24.10;86.00;;;;;;5067009;28;20379;-69
2022/06/18 06:02:53;;;;;;;;;;;24.60;84.40;;;;;;5062841;28;20020;-67
2022/06/18 06:05:20;;;;;;;;;;;25.30;80.70;;;;;;5061815;28;20443;-67
2022/06/18 06:07:49;;;;;;;;;;;26.00;76.30;;;;;;5053908;28;19931;-67
2022/06/18 06:13:05;;;;;;;;;;;26.40;71.10;;;;;;5062339;28;19993;-67
2022/06/18 06:15:31;;;;;;;;;;;26.70;68.10;;;;;;5063239;28;19924;-67
2022/06/18 06:17:58;;;;;;;;;;;27.20;64.30;;;;;;5056734;28;20028;-67
2022/06/18 06:20:27;;;;;;;;;;;27.50;61.60;;;;;;5052382;28;19925;-67
2022/06/18 06:22:54;;;;;;;;;;;27.50;59.80;;;;;;5057565;28;19978;-67
2022/06/18 06:25:20;;;;;;;;;;;27.90;57.20;;;;;;5067784;28;19931;-67
2022/06/18 06:27:47;;;;;;;;;;;28.00;55.40;;;;;;5056818;28;19931;-67
2022/06/18 06:30:17;;;;;;;;;;;28.00;54.50;;;;;;5065516;28;19925;-67
2022/06/18 06:32:43;;;;;;;;;;;28.10;53.00;;;;;;5066463;28;20401;-67
2022/06/18 06:35:10;;;;;;;;;;;28.50;50.30;;;;;;5054211;28;20398;-67
2022/06/18 06:37:37;;;;;;;;;;;28.80;48.20;;;;;;5065612;28;19928;-67
2022/06/18 06:40:04;;;;;;;;;;;29.10;46.60;;;;;;5060228;28;20015;-66
2022/06/18 06:42:31;;;;;;;;;;;29.40;44.50;;;;;;5051966;28;19962;-67
2022/06/18 06:44:58;;;;;;;;;;;29.50;43.50;;;;;;5053826;28;19925;-67
2022/06/18 06:47:26;;;;;;;;;;;29.50;41.50;;;;;;5063603;28;19970;-67
2022/06/18 06:49:53;;;;;;;;;;;29.70;40.30;;;;;;5061858;28;19925;-67
2022/06/18 06:52:20;;;;;;;;;;;29.60;39.70;;;;;;5055736;28;19963;-66
2022/06/18 06:57:20;;;;;;;;;;;29.90;38.70;;;;;;5054249;28;19998;-66
2022/06/18 06:57:32;;;;;;;;;;;30.40;37.30;;;;;;5054349;28;20301;-67
2022/06/18 06:59:59;;;;;;;;;;;31.10;35.80;;;;;;5059252;28;19940;-67
2022/06/18 07:02:27;;;;;;;;;;;31.40;33.10;;;;;;5062522;28;19987;-66
2022/06/18 07:04:54;;;;;;;;;;;31.60;31.70;;;;;;5058244;28;19976;-66
2022/06/18 07:07:21;;;;;;;;;;;31.60;30.70;;;;;;5059962;28;20368;-66
2022/06/18 07:09:48;;;;;;;;;;;31.30;30.10;;;;;;5063399;28;19979;-67
2022/06/18 07:12:14;;;;;;;;;;;31.10;31.10;;;;;;5061219;28;19967;-67
2022/06/18 07:14:41;;;;;;;;;;;31.40;30.20;;;;;;5067433;28;20298;-66
2022/06/18 07:17:14;;;;;;;;;;;32.00;29.80;;;;;;5068846;28;20023;-66
2022/06/18 07:19:42;;;;;;;;;;;32.40;28.50;;;;;;5065306;28;20014;-66
2022/06/18 07:22:10;;;;;;;;;;;32.00;28.10;;;;;;5059764;28;19925;-66
2022/06/18 07:24:37;;;;;;;;;;;32.00;28.30;;;;;;5056494;28;19928;-66
2022/06/18 07:27:04;;;;;;;;;;;32.00;27.10;;;;;;5061074;28;19924;-67
2022/06/18 07:29:31;;;;;;;;;;;31.70;26.90;;;;;;5063437;28;20036;-68
2022/06/18 07:32:04;;;;;;;;;;;31.60;26.40;;;;;;5061086;28;20027;-67
2022/06/18 07:34:31;;;;;;;;;;;31.60;25.50;;;;;;5050723;28;20487;-68
2022/06/18 07:36:59;;;;;;;;;;;31.90;25.00;;;;;;5062711;28;19979;-67
2022/06/18 07:39:26;;;;;;;;;;;32.40;24.80;;;;;;5060169;28;19924;-67
2022/06/18 07:41:54;;;;;;;;;;;32.40;23.30;;;;;;5062497;28;20039;-67
2022/06/18 07:44:21;;;;;;;;;;;32.20;23.80;;;;;;5062314;28;19924;-67
2022/06/18 07:46:48;;;;;;;;;;;32.40;24.10;;;;;;5064266;28;20395;-67
2022/06/18 07:49:15;;;;;;;;;;;33.40;22.40;;;;;;5061818;28;20051;-67
2022/06/18 07:51:41;;;;;;;;;;;33.00;21.70;;;;;;5067037;28;19931;-67
2022/06/18 07:54:10;;;;;;;;;;;32.70;21.90;;;;;;5068315;28;19924;-68
2022/06/18 07:56:36;;;;;;;;;;;32.80;21.80;;;;;;5069705;28;20011;-67
2022/06/18 07:59:03;;;;;;;;;;;33.00;21.90;;;;;;5062209;28;19925;-67
2022/06/18 08:01:30;;;;;;;;;;;33.30;21.00;;;;;;5066455;28;19983;-67
2022/06/18 08:03:57;;;;;;;;;;;33.50;20.30;;;;;;5070336;28;20279;-67
2022/06/18 08:06:24;;;;;;;;;;;33.80;19.80;;;;;;5068859;28;20383;-67
2022/06/18 08:08:50;;;;;;;;;;;34.30;18.50;;;;;;5062004;28;19971;-69
2022/06/18 08:11:21;;;;;;;;;;;34.00;18.70;;;;;;5060025;28;20395;-68
2022/06/18 08:13:49;;;;;;;;;;;33.60;19.70;;;;;;5058417;28;19939;-68
2022/06/18 08:16:16;;;;;;;;;;;33.40;19.70;;;;;;5062511;28;19925;-67
2022/06/18 08:18:43;;;;;;;;;;;33.90;19.20;;;;;;5069196;28;19924;-67
2022/06/18 08:21:13;;;;;;;;;;;34.00;18.80;;;;;;5066599;28;21505;-68
2022/06/18 08:23:40;;;;;;;;;;;;;;;;;;5064764;28;20298;-67
2022/06/18 08:26:07;;;;;;;;;;;;;;;;;;5062695;28;19967;-67
2022/06/18 08:28:34;;;;;;;;;;;;;;;;;;5058290;28;20474;-67
2022/06/18 08:31:01;;;;;;;;;;;;;;;;;;5056174;28;21371;-68
2022/06/18 08:33:29;;;;;;;;;;;;;;;;;;5061406;28;20063;-69
2022/06/18 08:35:57;;;;;;;;;;;;;;;;;;5062022;28;19924;-68
2022/06/18 08:38:24;;;;;;;;;;;;;;;;;;5058621;28;22501;-68
2022/06/18 08:40:51;;;;;;;;;;;;;;;;;;5054417;28;20097;-68
2022/06/18 08:43:36;;;;;;;;;;;36.10;12.50;;;;;;5052186;28;20350;-68
2022/06/18 08:46:09;;;;;;;;;;;35.80;13.00;;;;;;5063303;28;19937;-68
2022/06/18 08:48:53;;;;;;;;;;;35.10;14.30;;;;;;5061490;28;19935;-68
2022/06/18 08:51:28;;;;;;;;;;;35.20;14.20;;;;;;5053247;28;19968;-68
2022/06/18 08:54:06;;;;;;;;;;;36.00;13.50;;;;;;5057354;28;19981;-68
2022/06/18 08:56:35;;;;;;;;;;;36.50;13.10;;;;;;5058936;28;20028;-68
2022/06/18 08:59:06;;;;;;;;;;;37.00;11.50;;;;;;5065331;28;19968;-67
2022/06/18 09:01:40;;;;;;;;;;;36.20;11.70;;;;;;5064970;28;19999;-68
2022/06/18 09:04:12;;;;;;;;;;;36.00;12.00;;;;;;5062270;28;20335;-67
2022/06/18 09:06:47;;;;;;;;;;;35.50;12.70;;;;;;5059100;28;19925;-67
2022/06/18 09:09:18;;;;;;;;;;;35.40;12.30;;;;;;5058587;28;20029;-67
2022/06/18 09:12:02;;;;;;;;;;;35.40;12.10;;;;;;5062863;28;19964;-67
2022/06/18 09:14:31;;;;;;;;;;;35.30;12.40;;;;;;5061845;28;19925;-68
2022/06/18 09:17:01;;;;;;;;;;;35.80;11.50;;;;;;5061176;28;20307;-68
2022/06/18 09:19:28;;;;;;;;;;;35.70;11.10;;;;;;5066277;28;19978;-69
2022/06/18 09:21:56;;;;;;;;;;;36.40;11.00;;;;;;5062845;28;19932;-68
2022/06/18 09:24:24;;;;;;;;;;;36.80;10.00;;;;;;5050862;28;19929;-67
2022/06/18 09:26:55;;;;;;;;;;;36.60;9.10;;;;;;5053960;28;20392;-68
2022/06/18 09:29:23;;;;;;;;;;;36.00;9.80;;;;;;5054962;28;19931;-67
2022/06/18 09:31:53;;;;;;;;;;;35.30;11.00;;;;;;5059328;28;19928;-67
2022/06/18 09:34:24;;;;;;;;;;;35.50;11.10;;;;;;5059679;28;20005;-67
2022/06/18 09:36:52;;;;;;;;;;;35.70;11.00;;;;;;5062470;28;19936;-67
2022/06/18 09:39:21;;;;;;;;;;;35.50;11.10;;;;;;5061107;28;19924;-67
2022/06/18 09:41:54;;;;;;;;;;;35.60;11.00;;;;;;5063298;28;20358;-67
2022/06/18 09:44:22;;;;;;;;;;;35.50;11.80;;;;;;5062739;28;19924;-67
2022/06/18 09:46:51;;;;;;;;;;;35.10;12.00;;;;;;5057676;28;20032;-67
2022/06/18 09:49:18;;;;;;;;;;;35.30;12.10;;;;;;5057576;28;19933;-67
2022/06/18 09:51:48;;;;;;;;;;;35.20;11.80;;;;;;5061129;28;19928;-68
2022/06/18 09:54:17;;;;;;;;;;;35.20;11.90;;;;;;5060853;28;20307;-67
2022/06/18 09:56:46;;;;;;;;;;;35.70;11.40;;;;;;5061273;28;19977;-68
2022/06/18 09:59:15;;;;;;;;;;;36.00;10.30;;;;;;5060165;28;19931;-69
2022/06/18 10:01:43;;;;;;;;;;;36.20;10.00;;;;;;5057183;28;20011;-69
2022/06/18 10:06:58;;;;;;;;;;;36.70;8.40;;;;;;5059763;28;19935;-70
2022/06/18 10:09:27;;;;;;;;;;;36.80;8.10;;;;;;5058745;28;20019;-70
2022/06/18 10:11:54;;;;;;;;;;;36.50;7.10;;;;;;5060312;28;19932;-69
2022/06/18 10:14:22;;;;;;;;;;;35.40;8.80;;;;;;5059957;28;20370;-69
2022/06/18 10:16:53;;;;;;;;;;;34.40;9.60;;;;;;5066369;28;19935;-69
2022/06/18 10:19:24;;;;;;;;;;;33.60;11.90;;;;;;5060398;28;19924;-67
2022/06/18 10:21:55;;;;;;;;;;;33.10;11.80;;;;;;5062376;28;20050;-69
2022/06/18 10:24:28;;;;;;;;;;;33.00;12.00;;;;;;5061754;28;19932;-70
2022/06/18 10:27:00;;;;;;;;;;;32.90;12.50;;;;;;5067319;28;20050;-70
2022/06/18 10:29:30;;;;;;;;;;;32.90;13.00;;;;;;5053244;28;19948;-69
2022/06/18 10:32:03;;;;;;;;;;;33.00;12.90;;;;;;5067679;28;19932;-69
2022/06/18 10:34:37;;;;;;;;;;;32.80;12.60;;;;;;5068321;28;19976;-70
2022/06/18 10:37:10;;;;;;;;;;;32.70;13.10;;;;;;5062452;28;20015;-69
2022/06/18 10:39:43;;;;;;;;;;;32.30;13.90;;;;;;5069123;28;19924;-70
2022/06/18 10:42:16;;;;;;;;;;;32.50;13.80;;;;;;5061257;28;19933;-69
2022/06/18 10:44:52;;;;;;;;;;;32.70;13.80;;;;;;5063200;28;20121;-69
2022/06/18 10:47:18;;;;;;;;;;;32.90;13.60;;;;;;5058341;28;19935;-69
2022/06/18 10:49:46;;;;;;;;;;;33.10;13.70;;;;;;5058180;28;19924;-69
2022/06/18 10:52:17;;;;;;;;;;;33.10;13.60;;;;;;5071286;28;19931;-69
2022/06/18 10:54:46;;;;;;;;;;;32.90;13.60;;;;;;5061052;28;19975;-69
2022/06/18 10:57:22;;;;;;;;;;;33.00;13.90;;;;;;5068947;28;19924;-69
2022/06/18 10:59:49;;;;;;;;;;;32.90;13.30;;;;;;5063642;28;20011;-69
2022/06/18 11:02:17;;;;;;;;;;;32.90;13.40;;;;;;5067266;28;19954;-69
2022/06/18 11:04:51;;;;;;;;;;;32.90;14.00;;;;;;5067372;28;20019;-69
2022/06/18 11:07:21;;;;;;;;;;;32.80;13.40;;;;;;5058173;28;19932;-69
2022/06/18 11:09:55;;;;;;;;;;;32.80;14.00;;;;;;5059891;28;19925;-70
2022/06/18 11:12:23;;;;;;;;;;;32.50;14.70;;;;;;5057308;28;19925;-69
2022/06/18 11:14:50;;;;;;;;;;;32.80;14.90;;;;;;5060414;28;20414;-70
2022/06/18 11:17:20;;;;;;;;;;;33.00;14.50;;;;;;5059043;28;19931;-68
2022/06/18 11:19:48;;;;;;;;;;;32.50;15.20;;;;;;5065690;28;19956;-69
2022/06/18 11:22:17;;;;;;;;;;;32.70;15.10;;;;;;5052771;28;19925;-70
2022/06/18 11:24:45;;;;;;;;;;;32.80;15.10;;;;;;5070252;28;19935;-70
2022/06/18 11:27:14;;;;;;;;;;;33.00;14.80;;;;;;5071992;28;20383;-71
2022/06/18 11:29:43;;;;;;;;;;;32.90;14.30;;;;;;5065512;28;19924;-69
2022/06/18 11:32:10;;;;;;;;;;;32.80;14.50;;;;;;5060817;28;20366;-70
2022/06/18 11:34:38;;;;;;;;;;;32.90;15.30;;;;;;5059778;28;19971;-69
2022/06/18 11:37:12;;;;;;;;;;;32.90;14.90;;;;;;5062248;28;19975;-70
2022/06/18 11:39:40;;;;;;;;;;;32.90;14.90;;;;;;5059906;28;19928;-70
2022/06/18 11:42:14;;;;;;;;;;;33.00;15.50;;;;;;5057458;28;19975;-70
2022/06/18 11:44:44;;;;;;;;;;;33.40;15.00;;;;;;5055387;28;20004;-70
2022/06/18 11:47:13;;;;;;;;;;;33.50;14.30;;;;;;5056753;28;19971;-69
2022/06/18 11:49:43;;;;;;;;;;;33.60;14.90;;;;;;5059259;28;19928;-70
2022/06/18 11:52:14;;;;;;;;;;;33.70;14.70;;;;;;5058863;28;19972;-70
2022/06/18 11:54:45;;;;;;;;;;;33.90;13.70;;;;;;5055961;28;20269;-69
2022/06/18 11:57:16;;;;;;;;;;;34.00;12.70;;;;;;5061200;28;19924;-69
2022/06/18 11:59:46;;;;;;;;;;;33.50;13.70;;;;;;5064865;28;19955;-69
2022/06/18 12:02:15;;;;;;;;;;;33.60;14.40;;;;;;5060479;28;19947;-69
2022/06/18 12:04:44;;;;;;;;;;;33.70;14.40;;;;;;5064843;28;20595;-69
2022/06/18 12:07:14;;;;;;;;;;;33.80;14.20;;;;;;5060926;28;19943;-69
2022/06/18 12:09:42;;;;;;;;;;;33.70;13.90;;;;;;5055621;28;20410;-69
2022/06/18 12:12:27;;;;;;;;;;;34.00;13.80;;;;;;5060662;28;19932;-69
2022/06/18 12:14:58;;;;;;;;;;;34.10;13.90;;;;;;5058691;28;19924;-70
2022/06/18 12:17:27;;;;;;;;;;;34.30;13.30;;;;;;5066004;28;20011;-69
2022/06/18 12:19:57;;;;;;;;;;;34.30;13.50;;;;;;5061500;28;19930;-69
2022/06/18 12:22:27;;;;;;;;;;;34.20;13.50;;;;;;5069541;28;19980;-69
2022/06/18 12:25:00;;;;;;;;;;;34.20;14.00;;;;;;5059286;28;20342;-69
2022/06/18 12:27:30;;;;;;;;;;;34.10;13.90;;;;;;5057608;28;20359;-69
2022/06/18 12:30:01;;;;;;;;;;;34.30;14.10;;;;;;5059188;28;20322;-70
2022/06/18 12:32:32;;;;;;;;;;;34.20;13.30;;;;;;5062939;28;19925;-69
2022/06/18 12:35:03;;;;;;;;;;;33.90;14.70;;;;;;5055080;28;19971;-69
2022/06/18 12:37:38;;;;;;;;;;;34.10;14.20;;;;;;5058229;28;20696;-67
2022/06/18 12:40:08;;;;;;;;;;;34.10;14.40;;;;;;5058828;28;19964;-68
2022/06/18 12:42:40;;;;;;;;;;;34.30;13.80;;;;;;5061113;28;19931;-70
2022/06/18 12:45:11;;;;;;;;;;;34.10;14.30;;;;;;5066055;28;19942;-71
2022/06/18 12:47:43;;;;;;;;;;;33.70;14.90;;;;;;5066335;28;20470;-70
2022/06/18 12:50:17;;;;;;;;;;;33.80;15.00;;;;;;5060140;28;20038;-71
2022/06/18 12:52:45;;;;;;;;;;;33.80;15.10;;;;;;5061099;28;19924;-70
2022/06/18 12:55:22;;;;;;;;;;;33.90;15.30;;;;;;5062297;28;20019;-71
2022/06/18 12:57:54;;;;;;;;;;;34.00;14.60;;;;;;5062685;28;19933;-70
2022/06/18 13:00:25;;;;;;;;;;;34.00;15.10;;;;;;5054895;28;19956;-71
2022/06/18 13:03:06;;;;;;;;;;;33.90;15.20;;;;;;5060368;28;19954;-71
2022/06/18 13:05:38;;;;;;;;;;;34.00;15.20;;;;;;5054991;28;20022;-70
2022/06/18 13:08:10;;;;;;;;;;;34.50;15.30;;;;;;5060916;28;19978;-71
2022/06/18 13:10:43;;;;;;;;;;;34.50;15.20;;;;;;5067987;28;19978;-71
2022/06/18 13:13:17;;;;;;;;;;;34.30;15.20;;;;;;5066796;28;19959;-71
2022/06/18 13:15:47;;;;;;;;;;;33.90;15.70;;;;;;5054116;28;19925;-69
2022/06/18 13:18:16;;;;;;;;;;;34.20;16.30;;;;;;5052406;28;20490;-69
2022/06/18 13:20:43;;;;;;;;;;;34.30;14.50;;;;;;5054691;28;20493;-69
2022/06/18 13:28:44;;;;;;;;;;;34.80;14.50;;;;;;5022643;28;20450;-69
2022/06/18 13:31:18;;;;;;;;;;;34.60;14.40;;;;;;5054413;28;19931;-68
2022/06/18 13:33:50;;;;;;;;;;;34.70;14.80;;;;;;5057352;28;19946;-68
2022/06/18 13:36:21;;;;;;;;;;;34.60;14.80;;;;;;5059796;28;19978;-66
2022/06/18 13:38:50;;;;;;;;;;;34.60;14.80;;;;;;5062361;28;19982;-68
2022/06/18 13:41:22;;;;;;;;;;;34.50;15.00;;;;;;5059569;28;19961;-69
2022/06/18 13:43:52;;;;;;;;;;;34.70;15.00;;;;;;5056631;28;20691;-68
2022/06/18 13:46:24;;;;;;;;;;;34.80;14.70;;;;;;5056034;28;19925;-68
2022/06/18 13:48:54;;;;;;;;;;;34.70;14.90;;;;;;5061593;28;19968;-68
2022/06/18 13:51:25;;;;;;;;;;;35.00;15.10;;;;;;5062835;28;19990;-68
2022/06/18 13:53:51;;;;;;;;;;;35.30;13.40;;;;;;5057347;28;20438;-69
2022/06/18 13:56:20;;;;;;;;;;;35.10;14.10;;;;;;5055731;28;20087;-68
2022/06/18 13:58:48;;;;;;;;;;;34.80;14.50;;;;;;5064769;28;19946;-67
2022/06/18 14:01:16;;;;;;;;;;;34.60;14.50;;;;;;5057523;28;19982;-68
2022/06/18 14:03:45;;;;;;;;;;;34.60;13.90;;;;;;5052393;28;20356;-68
2022/06/18 14:06:12;;;;;;;;;;;34.70;15.30;;;;;;5051639;28;20528;-67
2022/06/18 14:08:42;;;;;;;;;;;34.80;14.90;;;;;;5053179;28;19978;-67
2022/06/18 14:11:10;;;;;;;;;;;34.90;15.90;;;;;;5054438;28;19933;-67
2022/06/18 14:13:47;;;;;;;;;;;34.60;15.80;;;;;;5049127;28;19929;-67
2022/06/18 14:16:14;;;;;;;;;;;34.30;15.60;;;;;;5056532;28;19929;-69
2022/06/18 14:18:41;;;;;;;;;;;34.20;16.50;;;;;;5054678;28;19929;-72
2022/06/18 14:21:10;;;;;;;;;;;34.20;16.30;;;;;;5051717;28;19932;-68
2022/06/18 14:23:38;;;;;;;;;;;34.30;16.00;;;;;;5055977;28;20365;-68
2022/06/18 14:26:07;;;;;;;;;;;34.50;16.40;;;;;;5056035;28;19924;-68
2022/06/18 14:28:35;;;;;;;;;;;34.30;16.30;;;;;;5053411;28;20467;-68
2022/06/18 14:31:06;;;;;;;;;;;34.30;16.30;;;;;;5060142;28;19932;-68
2022/06/18 14:33:34;;;;;;;;;;;34.50;15.40;;;;;;5057460;28;19924;-71
2022/06/18 14:36:05;;;;;;;;;;;34.30;15.70;;;;;;5056477;28;19955;-70
2022/06/18 14:38:34;;;;;;;;;;;34.50;15.90;;;;;;5054723;28;20357;-69
2022/06/18 14:43:53;;;;;;;;;;;34.40;16.00;;;;;;5063294;28;20026;-69
2022/06/18 14:46:26;;;;;;;;;;;34.30;15.70;;;;;;5068415;28;20392;-69
2022/06/18 14:49:02;;;;;;;;;;;34.20;15.80;;;;;;5064291;28;19990;-69
2022/06/18 14:51:42;;;;;;;;;;;34.30;16.50;;;;;;5062685;28;19932;-69
2022/06/18 14:54:23;;;;;;;;;;;34.50;15.40;;;;;;5062558;28;20035;-72